createdAt,value
2022-12-24T00:02:20.439Z,101701.25
2022-12-24T00:04:47.034Z,101694.78
2022-12-24T00:07:13.709Z,101695.88
2022-12-24T00:09:40.287Z,101707.19
2022-12-24T00:12:07.072Z,101704.34
2022-12-24T00:14:33.695Z,101699.19
2022-12-24T00:17:00.505Z,101695.59
2022-12-24T00:19:27.166Z,101698.28
2022-12-24T00:21:53.827Z,101692.34
2022-12-24T00:24:20.342Z,101697.16
2022-12-24T00:26:46.923Z,101694.72
2022-12-24T00:29:13.504Z,101699.25
2022-12-24T00:31:40.176Z,101691.28
2022-12-24T00:34:08.702Z,101690.69
2022-12-24T00:36:35.367Z,101694.03
2022-12-24T00:39:02.007Z,101696.34
2022-12-24T00:41:29.396Z,101696.59
2022-12-24T00:43:58.281Z,101695.94
2022-12-24T00:46:26.041Z,101704.66
2022-12-24T00:48:52.839Z,101706.47
2022-12-24T00:51:20.323Z,101702.97
2022-12-24T00:53:47.006Z,101696.41
2022-12-24T00:56:13.641Z,101697.22
2022-12-24T00:58:40.330Z,101693.91
2022-12-24T01:01:07.208Z,101691.59
2022-12-24T01:03:37.105Z,101690.16
2022-12-24T01:06:22.929Z,101702.72
2022-12-24T01:08:52.713Z,101696.53
2022-12-24T01:11:19.329Z,101693.66
2022-12-24T01:13:45.871Z,101693.44
2022-12-24T01:16:17.119Z,101699.63
2022-12-24T01:18:43.804Z,101691.59
2022-12-24T01:21:10.420Z,101691.59
2022-12-24T01:23:37.114Z,101689.75
2022-12-24T01:26:04.340Z,101696.97
2022-12-24T01:28:31.801Z,101699.41
2022-12-24T01:30:58.344Z,101696.34
2022-12-24T01:33:27.763Z,101704.19
2022-12-24T01:35:54.313Z,101704.19
2022-12-24T01:38:20.910Z,101698.63
2022-12-24T01:41:05.833Z,101706.69
2022-12-24T01:43:32.663Z,101707.69
2022-12-24T01:46:01.894Z,101700.69
2022-12-24T01:48:34.202Z,101697.63
2022-12-24T01:51:02.726Z,101697.41
2022-12-24T01:53:29.768Z,101703.59
2022-12-24T01:55:56.574Z,101704.66
2022-12-24T01:58:24.359Z,101703.81
2022-12-24T02:00:50.868Z,101705.66
2022-12-24T02:03:18.038Z,101693.25
2022-12-24T02:05:47.732Z,101700.50
2022-12-24T02:08:15.287Z,101696.59
2022-12-24T02:10:41.934Z,101701.31
2022-12-24T02:13:08.687Z,101692.25
2022-12-24T02:15:42.641Z,101692.06
2022-12-24T02:18:20.877Z,101692.25
2022-12-24T02:21:16.830Z,101699.91
2022-12-24T02:23:53.554Z,101693.25
2022-12-24T02:26:32.100Z,101693.91
2022-12-24T02:29:04.637Z,101684.81
2022-12-24T02:31:40.538Z,101689.56
2022-12-24T02:34:33.922Z,101685.72
2022-12-24T02:37:19.286Z,101682.59
2022-12-24T02:39:58.514Z,101682.66
2022-12-24T02:42:28.319Z,101681.06
2022-12-24T02:45:02.091Z,101681.72
2022-12-24T02:47:30.995Z,101683.31
2022-12-24T02:50:01.350Z,101675.88
2022-12-24T02:52:32.832Z,101673.41
2022-12-24T02:55:01.665Z,101672.38
2022-12-24T02:57:37.158Z,101667.44
2022-12-24T03:00:13.310Z,101668.50
2022-12-24T03:02:48.017Z,101668.72
2022-12-24T03:05:21.483Z,101657.34
2022-12-24T03:08:20.418Z,101669.50
2022-12-24T03:10:57.850Z,101662.06
2022-12-24T03:13:25.081Z,101677.47
2022-12-24T03:15:51.992Z,101671.91
2022-12-24T03:18:20.983Z,101672.38
2022-12-24T03:21:13.820Z,101676.66
2022-12-24T03:23:40.789Z,101672.78
2022-12-24T03:26:09.174Z,101671.09
2022-12-24T03:28:37.396Z,101665.53
2022-12-24T03:31:04.874Z,101669.69
2022-12-24T03:33:31.895Z,101669.25
2022-12-24T03:35:58.485Z,101667.22
2022-12-24T03:38:25.083Z,101661.44
2022-12-24T03:40:51.958Z,101666.16
2022-12-24T03:43:18.657Z,101669.03
2022-12-24T03:45:45.362Z,101673.41
2022-12-24T03:48:11.964Z,101672.78
2022-12-24T03:50:38.515Z,101669.50
2022-12-24T03:53:05.112Z,101669.25
2022-12-24T03:55:31.688Z,101672.13
2022-12-24T03:57:58.311Z,101668.63
2022-12-24T04:00:24.927Z,101659.50
2022-12-24T04:02:51.697Z,101665.66
2022-12-24T04:05:19.330Z,101670.63
2022-12-24T04:07:46.670Z,101668.63
2022-12-24T04:10:13.547Z,101668.63
2022-12-24T04:12:40.226Z,101670.41
2022-12-24T04:15:07.334Z,101668.94
2022-12-24T04:17:34.002Z,101673.63
2022-12-24T04:20:00.588Z,101672.94
2022-12-24T04:22:27.193Z,101668.97
2022-12-24T04:24:53.762Z,101668.50
2022-12-24T04:27:22.928Z,101687.09
2022-12-24T04:29:51.865Z,101675.53
2022-12-24T04:32:18.487Z,101679.91
2022-12-24T04:34:45.139Z,101686.84
2022-12-24T04:37:11.681Z,101694.69
2022-12-24T04:39:38.242Z,101693.03
2022-12-24T04:42:04.895Z,101696.72
2022-12-24T04:44:31.521Z,101696.09
2022-12-24T04:46:58.053Z,101697.88
2022-12-24T04:49:24.735Z,101696.00
2022-12-24T04:51:51.245Z,101706.94
2022-12-24T04:54:17.859Z,101703.28
2022-12-24T04:56:44.488Z,101697.78
2022-12-24T04:59:11.128Z,101695.53
2022-12-24T05:01:37.813Z,101686.97
2022-12-24T05:04:04.590Z,101698.03
2022-12-24T05:06:31.997Z,101702.78
2022-12-24T05:08:59.308Z,101706.66
2022-12-24T05:11:25.901Z,101694.53
2022-12-24T05:13:52.570Z,101700.94
2022-12-24T05:16:19.917Z,101698.31
2022-12-24T05:18:46.816Z,101702.31
2022-12-24T05:21:14.684Z,101703.97
2022-12-24T05:23:59.673Z,101697.97
2022-12-24T05:26:29.408Z,101705.53
2022-12-24T05:28:56.916Z,101697.97
2022-12-24T05:31:25.094Z,101689.28
2022-12-24T05:33:51.810Z,101680.22
2022-12-24T05:36:18.350Z,101682.16
2022-12-24T05:38:44.999Z,101688.16
2022-12-24T05:41:11.630Z,101688.91
2022-12-24T05:43:38.574Z,101682.88
2022-12-24T05:46:07.116Z,101684.75
2022-12-24T05:48:34.153Z,101695.09
2022-12-24T05:51:03.940Z,101695.66
2022-12-24T05:53:30.528Z,101706.72
2022-12-24T05:56:02.563Z,101693.91
2022-12-24T05:58:29.133Z,101697.97
2022-12-24T06:00:55.692Z,101703.63
2022-12-24T06:03:22.317Z,101703.97
2022-12-24T06:05:48.901Z,101708.16
2022-12-24T06:08:15.545Z,101704.72
2022-12-24T06:10:42.076Z,101713.56
2022-12-24T06:13:08.704Z,101709.59
2022-12-24T06:15:36.082Z,101712.75
2022-12-24T06:18:03.240Z,101719.84
2022-12-24T06:20:30.074Z,101722.53
2022-12-24T06:22:56.741Z,101712.91
2022-12-24T06:25:23.260Z,101711.88
2022-12-24T06:27:49.934Z,101705.94
2022-12-24T06:30:18.542Z,101699.19
2022-12-24T06:32:45.378Z,101698.22
2022-12-24T06:35:12.334Z,101688.41
2022-12-24T06:37:38.976Z,101687.66
2022-12-24T06:40:05.704Z,101686.84
2022-12-24T06:42:32.315Z,101684.97
2022-12-24T06:45:02.284Z,101686.94
2022-12-24T06:47:34.415Z,101683.97
2022-12-24T06:50:00.955Z,101684.91
2022-12-24T06:52:27.592Z,101693.56
2022-12-24T06:54:54.168Z,101690.59
2022-12-24T06:57:20.916Z,101694.13
2022-12-24T06:59:47.493Z,101685.69
2022-12-24T07:02:14.273Z,101681.69
2022-12-24T07:04:40.826Z,101678.31
2022-12-24T07:07:07.447Z,101688.88
2022-12-24T07:09:33.991Z,101679.19
2022-12-24T07:12:00.614Z,101672.16
2022-12-24T07:14:27.227Z,101682.81
2022-12-24T07:16:58.866Z,101680.06
2022-12-24T07:19:26.025Z,101679.81
2022-12-24T07:21:52.689Z,101671.97
2022-12-24T07:24:20.242Z,101681.69
2022-12-24T07:26:46.909Z,101652.13
2022-12-24T07:29:13.513Z,101651.75
2022-12-24T07:31:40.247Z,101639.47
2022-12-24T07:34:06.896Z,101655.09
2022-12-24T07:36:33.418Z,101651.84
2022-12-24T07:39:00.104Z,101649.66
2022-12-24T07:41:26.668Z,101663.41
2022-12-24T07:43:53.469Z,101658.81
2022-12-24T07:46:20.139Z,101668.97
2022-12-24T07:48:46.763Z,101678.34
2022-12-24T07:51:13.430Z,101690.84
2022-12-24T07:53:40.161Z,101686.47
2022-12-24T07:56:12.380Z,101688.81
2022-12-24T07:58:39.546Z,101685.59
2022-12-24T08:01:06.263Z,101694.47
2022-12-24T08:03:33.080Z,101691.69
2022-12-24T08:05:59.799Z,101694.38
2022-12-24T08:08:26.407Z,101700.72
2022-12-24T08:10:53.222Z,101700.47
2022-12-24T08:13:19.924Z,101697.88
2022-12-24T08:15:46.539Z,101699.44
2022-12-24T08:18:13.131Z,101695.19
2022-12-24T08:20:40.496Z,101695.81
2022-12-24T08:23:07.737Z,101689.41
2022-12-24T08:25:34.784Z,101696.81
2022-12-24T08:28:01.550Z,101701.13
2022-12-24T08:30:28.169Z,101710.50
2022-12-24T08:32:54.899Z,101715.94
2022-12-24T08:35:21.560Z,101697.41
2022-12-24T08:37:48.149Z,101710.25
2022-12-24T08:40:14.760Z,101708.84
2022-12-24T08:42:41.495Z,101705.34
2022-12-24T08:45:08.343Z,101707.56
2022-12-24T08:47:34.936Z,101706.47
2022-12-24T08:50:01.517Z,101716.16
2022-12-24T08:52:28.121Z,101722.78
2022-12-24T08:54:55.495Z,101723.94
2022-12-24T08:57:22.127Z,101723.44
2022-12-24T08:59:48.674Z,101725.97
2022-12-24T09:02:16.640Z,101717.06
2022-12-24T09:04:43.467Z,101720.47
2022-12-24T09:07:10.801Z,101722.38
2022-12-24T09:09:38.184Z,101718.66
2022-12-24T09:12:07.963Z,101725.09
2022-12-24T09:14:34.660Z,101726.53
2022-12-24T09:17:01.263Z,101721.25
2022-12-24T09:19:28.119Z,101729.72
2022-12-24T09:21:54.709Z,101733.94
2022-12-24T09:24:21.344Z,101734.38
2022-12-24T09:26:55.510Z,101733.94
2022-12-24T09:29:24.129Z,101739.97
2022-12-24T09:31:50.942Z,101735.56
2022-12-24T09:34:17.657Z,101735.19
2022-12-24T09:36:44.239Z,101732.56
2022-12-24T09:39:10.941Z,101738.19
2022-12-24T09:41:55.967Z,101739.19
2022-12-24T09:44:22.599Z,101741.69
2022-12-24T09:46:50.249Z,101739.03
2022-12-24T09:49:20.213Z,101751.25
2022-12-24T09:51:51.577Z,101750.84
2022-12-24T09:54:22.785Z,101751.81
2022-12-24T09:56:49.843Z,101757.94
2022-12-24T09:59:26.909Z,101756.06
2022-12-24T10:01:54.658Z,101761.72
2022-12-24T10:04:23.968Z,101756.97
2022-12-24T10:06:53.628Z,101750.69
2022-12-24T10:09:32.172Z,101740.88
2022-12-24T10:12:14.033Z,101741.59
2022-12-24T10:14:57.042Z,101742.22
2022-12-24T10:17:58.892Z,101729.63
2022-12-24T10:20:31.254Z,101718.47
2022-12-24T10:23:03.881Z,101717.84
2022-12-24T10:25:34.450Z,101719.50
2022-12-24T10:28:02.384Z,101716.00
2022-12-24T10:30:29.035Z,101718.91
2022-12-24T10:32:55.995Z,101712.72
2022-12-24T10:35:25.720Z,101726.38
2022-12-24T10:37:53.471Z,101722.63
2022-12-24T10:40:20.089Z,101711.06
2022-12-24T10:42:51.266Z,101718.53
2022-12-24T10:45:20.732Z,101713.13
2022-12-24T10:47:49.740Z,101707.31
2022-12-24T10:50:28.593Z,101693.00
2022-12-24T10:52:59.895Z,101694.63
2022-12-24T10:55:28.255Z,101694.41
2022-12-24T10:58:01.268Z,101691.91
2022-12-24T11:00:35.319Z,101695.84
2022-12-24T11:03:11.733Z,101681.25
2022-12-24T11:05:38.709Z,101676.94
2022-12-24T11:08:20.302Z,101673.81
2022-12-24T11:10:57.339Z,101669.22
2022-12-24T11:13:37.515Z,101668.75
2022-12-24T11:16:07.935Z,101665.25
2022-12-24T11:18:36.531Z,101660.88
2022-12-24T11:21:03.610Z,101661.22
2022-12-24T11:23:30.867Z,101653.56
2022-12-24T11:25:58.406Z,101645.25
2022-12-24T11:28:24.987Z,101647.09
2022-12-24T11:31:18.406Z,101643.56
2022-12-24T11:33:49.305Z,101636.88
2022-12-24T11:36:17.225Z,101633.16
2022-12-24T11:38:52.419Z,101632.47
2022-12-24T11:41:19.019Z,101620.22
2022-12-24T11:43:47.880Z,101618.56
2022-12-24T11:46:19.359Z,101619.78
2022-12-24T11:48:46.582Z,101605.25
2022-12-24T11:51:26.508Z,101598.38
2022-12-24T11:53:59.861Z,101592.56
2022-12-24T11:56:29.603Z,101596.69
2022-12-24T11:58:59.109Z,101586.91
2022-12-24T12:01:44.085Z,101594.31
2022-12-24T12:04:13.079Z,101590.50
2022-12-24T12:06:45.566Z,101590.06
2022-12-24T12:09:14.292Z,101581.34
2022-12-24T12:11:42.414Z,101581.38
2022-12-24T12:14:14.818Z,101571.78
2022-12-24T12:17:07.717Z,101574.06
2022-12-24T12:19:46.526Z,101569.81
2022-12-24T12:22:28.377Z,101579.34
2022-12-24T12:24:56.900Z,101572.66
2022-12-24T12:27:38.026Z,101569.00
2022-12-24T12:30:06.395Z,101569.75
2022-12-24T12:32:55.328Z,101568.84
2022-12-24T12:35:22.224Z,101562.56
2022-12-24T12:37:54.144Z,101561.28
2022-12-24T12:40:21.019Z,101547.09
2022-12-24T12:42:58.590Z,101550.25
2022-12-24T12:45:35.228Z,101552.19
2022-12-24T12:48:01.838Z,101552.13
2022-12-24T12:50:33.412Z,101540.84
2022-12-24T12:53:12.178Z,101542.88
2022-12-24T12:55:38.768Z,101539.28
2022-12-24T12:58:10.912Z,101547.47
2022-12-24T13:00:39.620Z,101532.75
2022-12-24T13:03:24.407Z,101515.13
2022-12-24T13:06:09.862Z,101517.81
2022-12-24T13:08:55.058Z,101515.19
2022-12-24T13:11:33.830Z,101522.09
2022-12-24T13:14:00.406Z,101511.97
2022-12-24T13:16:33.973Z,101511.53
2022-12-24T13:19:19.267Z,101514.22
2022-12-24T13:21:48.946Z,101505.97
2022-12-24T13:24:20.795Z,101494.47
2022-12-24T13:27:02.633Z,101504.47
2022-12-24T13:29:31.374Z,101495.78
2022-12-24T13:32:16.529Z,101502.66
2022-12-24T13:34:47.406Z,101499.97
2022-12-24T13:37:21.908Z,101488.56
2022-12-24T13:40:02.489Z,101496.06
2022-12-24T13:42:47.653Z,101484.41
2022-12-24T13:45:29.774Z,101493.56
2022-12-24T13:48:08.554Z,101486.97
2022-12-24T13:50:41.055Z,101496.94
2022-12-24T13:53:20.922Z,101486.59
2022-12-24T13:55:55.338Z,101488.69
2022-12-24T13:58:23.896Z,101480.19
2022-12-24T14:00:56.311Z,101485.81
2022-12-24T14:03:36.104Z,101480.66
2022-12-24T14:06:05.861Z,101470.03
2022-12-24T14:08:38.060Z,101467.56
2022-12-24T14:11:06.679Z,101477.56
2022-12-24T14:13:39.314Z,101473.19
2022-12-24T14:16:06.238Z,101475.91
2022-12-24T14:18:35.657Z,101472.00
2022-12-24T14:21:03.033Z,101471.41
2022-12-24T14:23:35.849Z,101465.16
2022-12-24T14:26:03.728Z,101464.34
2022-12-24T14:28:34.169Z,101457.44
2022-12-24T14:31:01.676Z,101457.69
2022-12-24T14:33:29.159Z,101462.22
2022-12-24T14:35:55.819Z,101461.19
2022-12-24T14:38:22.995Z,101459.34
2022-12-24T14:41:08.441Z,101462.63
2022-12-24T14:43:55.348Z,101465.31
2022-12-24T14:46:31.143Z,101463.06
2022-12-24T14:49:00.780Z,101456.81
2022-12-24T14:51:43.883Z,101456.81
2022-12-24T14:54:28.933Z,101458.13
2022-12-24T14:57:10.873Z,101453.78
2022-12-24T14:59:46.418Z,101445.28
2022-12-24T15:02:31.620Z,101448.22
2022-12-24T15:05:04.311Z,101445.97
2022-12-24T15:07:31.959Z,101452.41
2022-12-24T15:09:58.559Z,101459.06
2022-12-24T15:12:25.510Z,101458.25
2022-12-24T15:14:52.134Z,101461.81
2022-12-24T15:17:18.851Z,101459.97
2022-12-24T15:19:47.600Z,101466.22
2022-12-24T15:22:22.519Z,101454.84
2022-12-24T15:24:49.232Z,101447.03
2022-12-24T15:27:22.789Z,101448.28
2022-12-24T15:29:51.031Z,101454.97
2022-12-24T15:32:18.783Z,101447.75
2022-12-24T15:34:46.774Z,101456.50
2022-12-24T15:37:23.745Z,101445.56
2022-12-24T15:39:55.135Z,101449.97
2022-12-24T15:42:22.934Z,101458.66
2022-12-24T15:44:58.358Z,101452.91
2022-12-24T15:47:27.965Z,101446.06
2022-12-24T15:49:54.798Z,101453.56
2022-12-24T15:52:24.713Z,101451.72
2022-12-24T15:54:57.459Z,101449.47
2022-12-24T15:57:26.871Z,101446.97
2022-12-24T15:59:54.692Z,101449.94
2022-12-24T16:02:27.599Z,101449.94
2022-12-24T16:04:55.217Z,101455.75
2022-12-24T16:07:47.546Z,101453.50
2022-12-24T16:10:26.561Z,101471.13
2022-12-24T16:12:53.205Z,101468.25
2022-12-24T16:15:19.900Z,101466.00
2022-12-24T16:17:49.187Z,101464.78
2022-12-24T16:20:21.512Z,101469.56
2022-12-24T16:22:49.013Z,101477.47
2022-12-24T16:25:15.590Z,101479.34
2022-12-24T16:27:42.182Z,101474.41
2022-12-24T16:30:09.771Z,101476.69
2022-12-24T16:32:38.075Z,101477.53
2022-12-24T16:35:06.564Z,101483.34
2022-12-24T16:37:33.177Z,101486.47
2022-12-24T16:40:00.387Z,101484.00
2022-12-24T16:42:45.761Z,101488.13
2022-12-24T16:45:17.439Z,101483.38
2022-12-24T16:47:50.962Z,101487.72
2022-12-24T16:50:18.409Z,101480.91
2022-12-24T16:52:44.992Z,101490.44
2022-12-24T16:55:15.154Z,101484.66
2022-12-24T16:57:42.279Z,101482.38
2022-12-24T17:00:20.029Z,101486.09
2022-12-24T17:02:47.992Z,101484.88
2022-12-24T17:05:14.803Z,101493.38
2022-12-24T17:07:44.017Z,101490.25
2022-12-24T17:10:12.074Z,101495.25
2022-12-24T17:12:38.671Z,101490.25
2022-12-24T17:15:05.606Z,101489.44
2022-12-24T17:17:32.210Z,101497.09
2022-12-24T17:19:58.868Z,101502.91
2022-12-24T17:22:27.368Z,101497.75
2022-12-24T17:24:54.652Z,101504.16
2022-12-24T17:27:21.404Z,101499.81
2022-12-24T17:29:48.018Z,101503.53
2022-12-24T17:32:14.603Z,101502.91
2022-12-24T17:34:41.152Z,101505.59
2022-12-24T17:37:07.868Z,101503.97
2022-12-24T17:39:34.520Z,101508.91
2022-12-24T17:42:01.270Z,101511.59
2022-12-24T17:44:27.845Z,101514.09
2022-12-24T17:46:54.715Z,101510.78
2022-12-24T17:49:21.363Z,101517.41
2022-12-24T17:51:48.441Z,101513.25
2022-12-24T17:54:15.033Z,101515.53
2022-12-24T17:56:41.656Z,101522.16
2022-12-24T17:59:08.244Z,101526.91
2022-12-24T18:01:34.931Z,101530.03
2022-12-24T18:04:02.306Z,101534.78
2022-12-24T18:06:29.177Z,101535.59
2022-12-24T18:08:56.096Z,101535.59
2022-12-24T18:11:24.965Z,101533.69
2022-12-24T18:13:51.865Z,101537.22
2022-12-24T18:16:24.681Z,101527.06
2022-12-24T18:18:51.896Z,101530.56
2022-12-24T18:21:19.689Z,101531.19
2022-12-24T18:23:47.277Z,101529.94
2022-12-24T18:26:15.468Z,101531.59
2022-12-24T18:28:42.213Z,101523.53
2022-12-24T18:31:10.984Z,101538.22
2022-12-24T18:33:38.205Z,101542.34
2022-12-24T18:36:04.981Z,101533.88
2022-12-24T18:38:32.206Z,101536.13
2022-12-24T18:41:03.152Z,101542.53
2022-12-24T18:43:29.754Z,101536.34
2022-12-24T18:45:56.357Z,101527.44
2022-12-24T18:48:22.948Z,101530.94
2022-12-24T18:50:56.945Z,101531.97
2022-12-24T18:53:23.665Z,101531.38
2022-12-24T18:55:50.258Z,101534.88
2022-12-24T18:58:16.881Z,101536.75
2022-12-24T19:00:43.783Z,101544.41
2022-12-24T19:03:10.568Z,101539.22
2022-12-24T19:05:37.150Z,101539.22
2022-12-24T19:08:22.162Z,101541.06
2022-12-24T19:10:53.105Z,101542.72
2022-12-24T19:13:19.685Z,101538.19
2022-12-24T19:15:46.260Z,101542.72
2022-12-24T19:18:12.887Z,101531.56
2022-12-24T19:20:40.071Z,101538.38
2022-12-24T19:23:07.255Z,101543.13
2022-12-24T19:25:34.534Z,101540.59
2022-12-24T19:28:01.840Z,101545.56
2022-12-24T19:30:28.412Z,101553.22
2022-12-24T19:32:55.027Z,101552.38
2022-12-24T19:35:21.624Z,101544.72
2022-12-24T19:37:48.188Z,101546.16
2022-12-24T19:40:14.748Z,101553.13
2022-12-24T19:42:41.406Z,101548.59
2022-12-24T19:45:08.354Z,101549.53
2022-12-24T19:47:34.936Z,101548.66
2022-12-24T19:50:01.532Z,101550.09
2022-12-24T19:52:28.155Z,101550.69
2022-12-24T19:54:54.671Z,101552.19
2022-12-24T19:57:21.332Z,101545.31
2022-12-24T19:59:47.870Z,101544.63
2022-12-24T20:02:14.606Z,101554.78
2022-12-24T20:04:41.359Z,101545.28
2022-12-24T20:07:07.922Z,101544.13
2022-12-24T20:09:34.472Z,101543.44
2022-12-24T20:12:01.153Z,101540.75
2022-12-24T20:14:28.687Z,101544.25
2022-12-24T20:16:55.496Z,101553.06
2022-12-24T20:19:22.439Z,101547.94
2022-12-24T20:21:49.112Z,101552.19
2022-12-24T20:24:15.789Z,101552.78
2022-12-24T20:26:42.445Z,101552.38
2022-12-24T20:29:09.814Z,101552.78
2022-12-24T20:31:37.205Z,101551.50
2022-12-24T20:34:05.395Z,101556.25
2022-12-24T20:36:32.127Z,101561.38
2022-12-24T20:38:59.167Z,101562.19
2022-12-24T20:41:26.517Z,101565.06
2022-12-24T20:43:53.069Z,101559.72
2022-12-24T20:46:20.720Z,101562.59
2022-12-24T20:48:47.397Z,101561.47
2022-12-24T20:51:23.385Z,101559.19
2022-12-24T20:53:52.471Z,101559.59
2022-12-24T20:56:19.121Z,101557.94
2022-12-24T20:58:45.995Z,101561.00
2022-12-24T21:01:15.671Z,101569.88
2022-12-24T21:03:42.803Z,101562.66
2022-12-24T21:06:09.417Z,101564.31
2022-12-24T21:08:36.182Z,101561.00
2022-12-24T21:11:21.428Z,101571.75
2022-12-24T21:13:48.286Z,101559.47
2022-12-24T21:16:14.875Z,101562.94
2022-12-24T21:18:41.807Z,101561.28
2022-12-24T21:21:08.360Z,101562.16
2022-12-24T21:23:36.341Z,101566.72
2022-12-24T21:26:04.418Z,101564.44
2022-12-24T21:28:31.417Z,101560.75
2022-12-24T21:30:58.056Z,101566.06
2022-12-24T21:33:24.732Z,101573.53
2022-12-24T21:35:56.878Z,101569.41
2022-12-24T21:38:23.429Z,101570.84
2022-12-24T21:41:06.488Z,101574.94
2022-12-24T21:43:34.318Z,101566.53
2022-12-24T21:46:01.339Z,101575.84
2022-12-24T21:48:46.781Z,101567.97
2022-12-24T21:51:16.085Z,101573.16
2022-12-24T21:54:01.333Z,101572.56
2022-12-24T21:56:27.910Z,101566.78
2022-12-24T21:58:54.453Z,101568.47
2022-12-24T22:01:21.131Z,101568.00
2022-12-24T22:03:49.424Z,101564.84
2022-12-24T22:06:35.390Z,101577.88
2022-12-24T22:09:28.676Z,101584.25
2022-12-24T22:11:55.234Z,101568.28
2022-12-24T22:14:21.829Z,101568.28
2022-12-24T22:16:48.602Z,101577.19
2022-12-24T22:19:15.400Z,101560.63
2022-12-24T22:21:41.986Z,101575.06
2022-12-24T22:24:09.111Z,101564.34
2022-12-24T22:26:35.722Z,101561.22
2022-12-24T22:29:04.349Z,101563.47
2022-12-24T22:31:32.578Z,101562.19
2022-12-24T22:33:59.648Z,101557.03
2022-12-24T22:36:26.554Z,101554.28
2022-12-24T22:38:53.087Z,101560.84
2022-12-24T22:41:20.335Z,101561.69
2022-12-24T22:43:49.012Z,101564.38
2022-12-24T22:46:15.787Z,101564.97
2022-12-24T22:48:43.643Z,101561.25
2022-12-24T22:51:11.767Z,101569.47
2022-12-24T22:53:38.325Z,101562.91
2022-12-24T22:56:05.650Z,101570.13
2022-12-24T22:58:32.407Z,101569.28
2022-12-24T23:00:59.078Z,101560.22
2022-12-24T23:03:28.561Z,101562.28
2022-12-24T23:05:56.626Z,101564.50
2022-12-24T23:08:23.325Z,101547.84
2022-12-24T23:10:49.949Z,101548.47
2022-12-24T23:13:35.232Z,101553.84
2022-12-24T23:16:06.816Z,101545.59
2022-12-24T23:18:33.661Z,101549.97
2022-12-24T23:21:04.136Z,101543.50
2022-12-24T23:23:36.439Z,101542.94
2022-12-24T23:26:10.986Z,101547.28
2022-12-24T23:28:38.146Z,101539.59
2022-12-24T23:31:05.059Z,101547.22
2022-12-24T23:33:31.736Z,101545.72
2022-12-24T23:35:58.361Z,101539.91
2022-12-24T23:38:25.132Z,101544.25
2022-12-24T23:40:55.033Z,101544.00
2022-12-24T23:43:21.620Z,101540.91
2022-12-24T23:45:48.679Z,101534.06
2022-12-24T23:48:15.651Z,101535.06
2022-12-24T23:50:43.240Z,101530.09
2022-12-24T23:53:10.169Z,101533.97
2022-12-24T23:55:37.114Z,101530.47
2022-12-24T23:58:04.252Z,101536.63
